LRBS/BBU METAR and TAF weather

Enter ICAO airport designator
Station Type Date Time Source
LRBS METAR 2019/04/19 11:00 UTC NOAA

LRBS 191100Z 04020KT 010V070 9000 -SHRA VCTS FEW014 SCT040CB 12/07 Q1023 RETS TEMPO VRB20G30KT 5000 TSRA BKN010 SCT040CB


Station Type Date Time Source
LRBS Decoded METAR 2019/04/19 11:00 UTC NOAA

Bucuresti / Imh, Romania (LRBS) 44-30N 026-08E 91M
Apr 19, 2019 - 07:00 AM EDT / 2019.04.19 1100 UTC
Wind: from the NE (040 degrees) at 23 MPH (20 KT) (direction variable):0
Visibility: 5 mile(s):0
Sky conditions: partly cloudy
Weather: light rain showers; thunder in the vicinity; Cumulonimbus clouds observed
Temperature: 53 F (12 C)
Dew Point: 44 F (7 C)
Relative Humidity: 71%
Pressure (altimeter): 30.21 in. Hg (1023 hPa)
ob: LRBS 191100Z 04020KT 010V070 9000 -SHRA VCTS FEW014 SCT040CB 12/07 Q1023 RETS TEMPO VRB20G30KT 5000 TSRA BKN010 SCT040CB
cycle: 11

Station Type Date Time Source
LRBS TAF 2019/04/19 06:33 UTC NOAA

TAF TAF LRBS 190500Z 1906/2006 27007KT CAVOK
BECMG 1908/1910 33012KT SCT040CB
TEMPO 1910/1916 5000 -SHRA PROB40
TEMPO 1911/1914 VRB20G30KT 3000 TSRA SCT015 BKN035CB
BECMG 1916/1918 06012KT NSC
BECMG 1921/1923 VRB04KT

Example: see airport list